This is the latest recevied weather packets stored in our database for station/object KB3AWQ. If no packets are shown the sender has not sent any weather packets the latest 1 day(s).
| Time | Temp. | Humidity | Pressure | Rain* | Wind** | Luminosity | Snow |
|---|---|---|---|---|---|---|---|
| 1778027066 | 21.11° C | 65% | 1007.5 hPa | 0 mm | - | 0 W/m² | - |
| 1778026166 | 21.67° C | 63% | 1007.1 hPa | 0 mm | - | 2 W/m² | - |
| 1778025867 | 21.67° C | 63% | 1007 hPa | 0 mm | - | 3 W/m² | - |
| 1778024967 | 22.22° C | 61% | 1007 hPa | 0 mm | - | 5 W/m² | - |
| 1778023767 | 22.78° C | 60% | 1007 hPa | 0 mm | - | 14 W/m² | - |
| 1778019869 | 24.44° C | 49% | 1007.1 hPa | 0 mm | - | 91 W/m² | - |
| 1778019267 | 24.44° C | 49% | 1007.2 hPa | 0 mm | - | 55 W/m² | - |
| 1778018967 | 24.44° C | 49% | 1007.2 hPa | 0 mm | - | 29 W/m² | - |
| 1778017467 | 25° C | 50% | 1007 hPa | 0 mm | - | 100 W/m² | - |
| 1778017167 | 25° C | 50% | 1006.9 hPa | 0 mm | - | 152 W/m² | - |
| 1778015069 | 25° C | 51% | 1006.5 hPa | 0 mm | - | 104 W/m² | - |
| 1778013867 | 25° C | 47% | 1006.5 hPa | 0 mm | - | 196 W/m² | - |
| 1778012967 | 25° C | 45% | 1006.6 hPa | 0 mm | - | 146 W/m² | - |
| 1778012367 | 25.56° C | 42% | 1006.5 hPa | 0 mm | - | 136 W/m² | - |
| 1778011768 | 25.56° C | 46% | 1006.2 hPa | 0 mm | - | 232 W/m² | - |
| 1778011470 | 26.11° C | 45% | 1006.3 hPa | 0 mm | - | 152 W/m² | - |
| 1778011169 | 26.11° C | 42% | 1006.3 hPa | 0 mm | - | 137 W/m² | - |
| 1778010567 | 26.11° C | 42% | 1006.3 hPa | 0 mm | - | 108 W/m² | - |
| 1778009667 | 26.67° C | 39% | 1006.2 hPa | 0 mm | - | 129 W/m² | - |
| 1778007267 | 26.67° C | 41% | 1006.2 hPa | 0 mm | - | 716 W/m² | - |
| 1778006667 | 26.67° C | 42% | 1006.1 hPa | 0 mm | - | 525 W/m² | - |
| 1778006067 | 26.67° C | 43% | 1006.5 hPa | 0 mm | - | 262 W/m² | - |
| 1778005467 | 27.22° C | 40% | 1006.5 hPa | 0 mm | - | 363 W/m² | - |
| 1778003666 | 27.22° C | 42% | 1006.9 hPa | 0 mm | - | 990 W/m² | - |
| 1778003367 | 26.67° C | 43% | 1006.9 hPa | 0 mm | - | 883 W/m² | - |
* Rain latest hour (hover to see other rain measurements)
** Current wind speed in m/s (hover to see current wind gust speed)